Terminal Aerodrome Forecast
Issued by NWS Jackson, MS

Home | Current Version | Previous Version | Text Only | Print | Product List | Glossary On
Versions: 1 2 3 4 5 6 7 8 9 10 11 12 13 14 15
000
FTUS44 KJAN 311100
TAFGWO
TAF
KGWO 311123Z 3112/0112 07003KT P6SM VCSH OVC070
     FM311300 06005KT 6SM -RA BR SCT040 OVC060
     FM312000 05007KT P6SM VCSH BKN030 OVC050
     FM010100 07003KT P6SM SCT020 OVC040=

USA.gov is the U.S. government's official web portal to all federal, state and local government web resources and services.